Ballico, California
Current Conditions -  °F | °C
As of 12:55 AM on Saturday 22 Nov 2014 (Local Time) from KMER Reporting Station
Scattered Clouds Scattered Clouds  
Wind Chill: 50°   Ceiling: Unl
Heat Index: 50°   Visibility: 5mi
Dew Point: 50°   Wind: 7mph
Humidity: 100%   Direction: 190°S
Pressure: 30.18"   Gusts: NA
Location:  37.45°N, 120.7°W
Report Text: KMER 220855Z AUTO 19006KT 5SM SCT023 SCT075 10/10 A3018 RMK AO1
Loading
Personal Weather Stations






























Interactive Weather Map New forecast layout! Learn more

10-Day Weather Forecast

Advertisements
Track Severe Weather on mobile